createdAt,value
2023-03-04T00:00:07.718Z,3.89
2023-03-04T00:02:33.996Z,3.92
2023-03-04T00:05:00.220Z,3.95
2023-03-04T00:07:26.441Z,3.98
2023-03-04T00:09:52.660Z,3.92
2023-03-04T00:12:18.870Z,3.94
2023-03-04T00:14:45.073Z,3.91
2023-03-04T00:17:11.272Z,3.92
2023-03-04T00:19:37.508Z,3.90
2023-03-04T00:22:03.872Z,3.93
2023-03-04T00:24:30.094Z,3.92
2023-03-04T00:26:56.284Z,3.91
2023-03-04T00:29:22.509Z,3.89
2023-03-04T00:31:48.901Z,3.97
2023-03-04T00:34:15.167Z,3.99
2023-03-04T00:36:41.373Z,4.02
2023-03-04T00:39:07.575Z,4.06
2023-03-04T00:41:34.071Z,3.97
2023-03-04T00:44:00.282Z,4.03
2023-03-04T00:46:26.483Z,4.03
2023-03-04T00:48:52.708Z,3.97
2023-03-04T00:51:18.912Z,4.05
2023-03-04T00:53:45.132Z,4.08
2023-03-04T00:56:11.322Z,4.10
2023-03-04T00:58:37.552Z,4.18
2023-03-04T01:01:03.918Z,4.17
2023-03-04T01:03:30.156Z,4.10
2023-03-04T01:05:56.358Z,4.15
2023-03-04T01:08:22.596Z,4.15
2023-03-04T01:10:48.866Z,4.18
2023-03-04T01:13:15.132Z,4.18
2023-03-04T01:15:41.365Z,4.18
2023-03-04T01:18:07.595Z,4.17
2023-03-04T01:20:34.756Z,4.21
2023-03-04T01:23:00.974Z,4.32
2023-03-04T01:25:27.184Z,4.34
2023-03-04T01:27:53.392Z,4.39
2023-03-04T01:30:19.640Z,4.38
2023-03-04T01:32:45.848Z,4.33
2023-03-04T01:35:12.065Z,4.39
2023-03-04T01:37:38.279Z,4.41
2023-03-04T01:40:04.637Z,4.41
2023-03-04T01:42:31.680Z,4.43
2023-03-04T01:44:57.891Z,4.45
2023-03-04T01:47:24.299Z,4.41
2023-03-04T01:49:52.586Z,4.41
2023-03-04T01:52:18.798Z,4.44
2023-03-04T01:54:45.024Z,4.52
2023-03-04T01:57:15.831Z,4.51
2023-03-04T01:59:42.204Z,4.56
2023-03-04T02:02:11.394Z,4.53
2023-03-04T02:04:37.665Z,4.51
2023-03-04T02:07:03.894Z,4.62
2023-03-04T02:09:30.286Z,4.60
2023-03-04T02:11:56.500Z,4.62
2023-03-04T02:14:22.706Z,4.65
2023-03-04T02:16:49.077Z,4.60
2023-03-04T02:19:24.487Z,4.58
2023-03-04T02:21:50.694Z,4.66
2023-03-04T02:24:16.871Z,4.68
2023-03-04T02:26:43.132Z,4.58
2023-03-04T02:29:09.940Z,4.59
2023-03-04T02:31:37.154Z,4.69
2023-03-04T02:34:04.850Z,4.67
2023-03-04T02:36:31.046Z,4.66
2023-03-04T02:39:00.947Z,4.68
2023-03-04T02:41:27.400Z,4.62
2023-03-04T02:43:53.968Z,4.60
2023-03-04T02:46:20.220Z,4.58
2023-03-04T02:48:46.451Z,4.56
2023-03-04T02:51:12.658Z,4.57
2023-03-04T02:53:38.884Z,4.50
2023-03-04T02:56:05.282Z,4.57
2023-03-04T02:58:31.501Z,4.50
2023-03-04T03:00:57.711Z,4.46
2023-03-04T03:03:23.946Z,4.51
2023-03-04T03:05:50.170Z,4.50
2023-03-04T03:08:16.373Z,4.52
2023-03-04T03:10:42.669Z,4.48
2023-03-04T03:13:08.865Z,4.51
2023-03-04T03:15:35.140Z,4.55
2023-03-04T03:18:01.344Z,4.52
2023-03-04T03:20:27.564Z,4.56
2023-03-04T03:22:53.795Z,4.54
2023-03-04T03:25:20.031Z,4.54
2023-03-04T03:27:46.262Z,4.50
2023-03-04T03:30:12.981Z,4.57
2023-03-04T03:32:39.251Z,4.60
2023-03-04T03:35:05.789Z,4.58
2023-03-04T03:37:32.019Z,4.67
2023-03-04T03:39:58.237Z,4.70
2023-03-04T03:42:24.440Z,4.64
2023-03-04T03:44:50.644Z,4.64
2023-03-04T03:47:16.836Z,4.71
2023-03-04T03:49:43.063Z,4.68
2023-03-04T03:52:09.309Z,4.66
2023-03-04T03:54:35.526Z,4.63
2023-03-04T03:57:01.737Z,4.65
2023-03-04T03:59:27.954Z,4.66
2023-03-04T04:01:54.270Z,4.68
2023-03-04T04:04:20.656Z,4.71
2023-03-04T04:06:46.846Z,4.69
2023-03-04T04:09:13.054Z,4.70
2023-03-04T04:11:39.257Z,4.69
2023-03-04T04:14:05.524Z,4.64
2023-03-04T04:16:31.852Z,4.72
2023-03-04T04:18:58.124Z,4.67
2023-03-04T04:21:24.336Z,4.71
2023-03-04T04:23:50.558Z,4.67
2023-03-04T04:26:16.767Z,4.67
2023-03-04T04:28:42.973Z,4.77
2023-03-04T04:31:09.338Z,4.73
2023-03-04T04:33:35.749Z,4.79
2023-03-04T04:36:01.973Z,4.85
2023-03-04T04:38:28.170Z,4.86
2023-03-04T04:40:56.161Z,4.92
2023-03-04T04:43:22.371Z,4.90
2023-03-04T04:45:48.651Z,4.86
2023-03-04T04:48:14.883Z,4.90
2023-03-04T04:50:41.112Z,4.83
2023-03-04T04:53:07.314Z,4.84
2023-03-04T04:55:33.926Z,4.83
2023-03-04T04:58:00.135Z,4.80
2023-03-04T05:00:26.590Z,4.76
2023-03-04T05:02:52.826Z,4.74
2023-03-04T05:05:19.057Z,4.65
2023-03-04T05:07:45.259Z,4.57
2023-03-04T05:10:11.494Z,4.56
2023-03-04T05:12:37.713Z,4.58
2023-03-04T05:15:03.960Z,4.57
2023-03-04T05:17:30.205Z,4.62
2023-03-04T05:19:56.426Z,4.62
2023-03-04T05:22:22.636Z,4.58
2023-03-04T05:24:48.894Z,4.59
2023-03-04T05:27:15.138Z,4.55
2023-03-04T05:29:41.357Z,4.46
2023-03-04T05:32:07.595Z,4.43
2023-03-04T05:34:33.847Z,4.45
2023-03-04T05:37:00.085Z,4.42
2023-03-04T05:39:26.309Z,4.45
2023-03-04T05:41:52.528Z,4.41
2023-03-04T05:44:18.785Z,4.41
2023-03-04T05:46:45.026Z,4.44
2023-03-04T05:49:11.261Z,4.38
2023-03-04T05:51:37.469Z,4.33
2023-03-04T05:54:03.836Z,4.36
2023-03-04T05:56:30.053Z,4.36
2023-03-04T05:58:59.362Z,4.36
2023-03-04T06:01:25.621Z,4.39
2023-03-04T06:03:51.879Z,4.33
2023-03-04T06:06:18.162Z,4.25
2023-03-04T06:08:44.360Z,4.19
2023-03-04T06:11:10.583Z,4.22
2023-03-04T06:13:36.810Z,4.22
2023-03-04T06:16:03.052Z,4.18
2023-03-04T06:18:29.408Z,4.16
2023-03-04T06:20:59.089Z,4.13
2023-03-04T06:23:25.376Z,4.16
2023-03-04T06:25:55.435Z,4.16
2023-03-04T06:28:21.753Z,4.16
2023-03-04T06:30:48.007Z,4.14
2023-03-04T06:33:14.221Z,4.16
2023-03-04T06:35:40.463Z,4.20
2023-03-04T06:38:06.721Z,4.16
2023-03-04T06:40:32.957Z,4.16
2023-03-04T06:42:59.175Z,4.15
2023-03-04T06:45:25.479Z,4.15
2023-03-04T06:47:51.754Z,4.19
2023-03-04T06:50:18.022Z,4.15
2023-03-04T06:52:44.235Z,4.16
2023-03-04T06:55:10.445Z,4.16
2023-03-04T06:57:36.680Z,4.20
2023-03-04T07:00:03.004Z,4.18
2023-03-04T07:02:29.219Z,4.20
2023-03-04T07:04:55.432Z,4.23
2023-03-04T07:07:21.635Z,4.23
2023-03-04T07:09:48.842Z,4.24
2023-03-04T07:12:15.053Z,4.23
2023-03-04T07:14:41.255Z,4.29
2023-03-04T07:17:07.477Z,4.27
2023-03-04T07:19:33.687Z,4.32
2023-03-04T07:21:59.907Z,4.29
2023-03-04T07:24:26.110Z,4.31
2023-03-04T07:26:52.332Z,4.30
2023-03-04T07:29:18.557Z,4.34
2023-03-04T07:31:44.816Z,4.38
2023-03-04T07:34:12.147Z,4.38
2023-03-04T07:36:38.361Z,4.40
2023-03-04T07:39:04.664Z,4.39
2023-03-04T07:41:30.895Z,4.39
2023-03-04T07:43:57.334Z,4.39
2023-03-04T07:46:23.550Z,4.38
2023-03-04T07:48:49.857Z,4.43
2023-03-04T07:51:20.134Z,4.43
2023-03-04T07:53:47.425Z,4.43
2023-03-04T07:56:14.387Z,4.46
2023-03-04T07:58:40.660Z,4.47
2023-03-04T08:01:10.795Z,4.50
2023-03-04T08:03:37.013Z,4.49
2023-03-04T08:06:07.088Z,4.45
2023-03-04T08:08:33.358Z,4.51
2023-03-04T08:10:59.575Z,4.48
2023-03-04T08:13:26.013Z,4.56
2023-03-04T08:15:52.288Z,4.55
2023-03-04T08:18:18.487Z,4.48
2023-03-04T08:20:44.718Z,4.54
2023-03-04T08:23:10.911Z,4.62
2023-03-04T08:25:40.482Z,4.75
2023-03-04T08:28:06.990Z,4.72
2023-03-04T08:30:33.212Z,4.75
2023-03-04T08:32:59.455Z,4.76
2023-03-04T08:35:25.712Z,4.75
2023-03-04T08:37:51.913Z,4.82
2023-03-04T08:40:18.464Z,4.78
2023-03-04T08:42:44.667Z,4.77
2023-03-04T08:45:10.927Z,4.83
2023-03-04T08:47:37.176Z,4.81
2023-03-04T08:50:03.887Z,4.80
2023-03-04T08:52:30.199Z,4.72
2023-03-04T08:54:56.489Z,4.61
2023-03-04T08:57:22.736Z,4.63
2023-03-04T08:59:48.953Z,4.70
2023-03-04T09:02:15.153Z,4.63
2023-03-04T09:04:41.364Z,4.66
2023-03-04T09:07:07.604Z,4.68
2023-03-04T09:09:33.810Z,4.72
2023-03-04T09:12:00.066Z,4.77
2023-03-04T09:14:26.285Z,4.92
2023-03-04T09:16:52.487Z,4.91
2023-03-04T09:19:18.694Z,4.91
2023-03-04T09:21:44.930Z,4.85
2023-03-04T09:24:11.132Z,4.96
2023-03-04T09:26:37.377Z,4.78
2023-03-04T09:29:03.651Z,4.74
2023-03-04T09:31:29.921Z,4.73
2023-03-04T09:33:56.744Z,4.68
2023-03-04T09:36:23.024Z,4.59
2023-03-04T09:38:49.217Z,4.57
2023-03-04T09:41:19.889Z,4.62
2023-03-04T09:43:46.331Z,4.59
2023-03-04T09:46:13.910Z,4.55
2023-03-04T09:48:43.784Z,4.59
2023-03-04T09:51:13.118Z,4.61
2023-03-04T09:53:40.640Z,4.62
2023-03-04T09:56:06.850Z,4.65
2023-03-04T09:58:39.483Z,4.73
2023-03-04T10:01:15.263Z,4.74
2023-03-04T10:03:51.745Z,4.62
2023-03-04T10:06:18.938Z,4.52
2023-03-04T10:08:46.226Z,4.59
2023-03-04T10:11:17.023Z,4.62
2023-03-04T10:14:02.210Z,4.66
2023-03-04T10:16:33.166Z,4.60
2023-03-04T10:19:01.967Z,4.55
2023-03-04T10:21:41.936Z,4.68
2023-03-04T10:24:12.023Z,4.77
2023-03-04T10:26:38.237Z,4.83
2023-03-04T10:29:04.430Z,4.80
2023-03-04T10:31:34.498Z,4.86
2023-03-04T10:34:00.712Z,5.00
2023-03-04T10:36:30.026Z,4.95
2023-03-04T10:39:06.070Z,4.85
2023-03-04T10:41:32.349Z,4.93
2023-03-04T10:43:58.635Z,4.93
2023-03-04T10:46:25.499Z,4.85
2023-03-04T10:48:52.016Z,5.04
2023-03-04T10:51:19.225Z,5.07
2023-03-04T10:53:45.450Z,5.08
2023-03-04T10:56:30.043Z,5.05
2023-03-04T10:59:04.291Z,5.17
2023-03-04T11:01:30.520Z,5.28
2023-03-04T11:03:56.772Z,5.25
2023-03-04T11:06:23.113Z,5.09
2023-03-04T11:08:55.884Z,4.94
2023-03-04T11:11:23.002Z,5.04
2023-03-04T11:13:53.060Z,4.97
2023-03-04T11:16:23.866Z,5.30
2023-03-04T11:18:50.774Z,5.39
2023-03-04T11:21:17.638Z,5.15
2023-03-04T11:23:48.216Z,5.05
2023-03-04T11:26:37.713Z,5.06
2023-03-04T11:29:10.100Z,5.19
2023-03-04T11:31:36.873Z,5.22
2023-03-04T11:34:04.884Z,5.17
2023-03-04T11:36:40.818Z,5.06
2023-03-04T11:39:13.644Z,5.15
2023-03-04T11:41:40.404Z,4.99
2023-03-04T11:44:06.684Z,5.07
2023-03-04T11:46:42.022Z,5.20
2023-03-04T11:49:43.876Z,5.19
2023-03-04T11:52:28.591Z,5.77
2023-03-04T11:55:18.438Z,5.69
2023-03-04T11:57:51.845Z,5.73
2023-03-04T12:00:21.104Z,5.98
2023-03-04T12:03:05.117Z,5.88
2023-03-04T12:05:52.395Z,6.00
2023-03-04T12:08:27.991Z,5.92
2023-03-04T12:11:09.154Z,5.54
2023-03-04T12:13:54.189Z,5.38
2023-03-04T12:16:28.093Z,5.42
2023-03-04T12:19:13.094Z,5.29
2023-03-04T12:21:39.291Z,5.05
2023-03-04T12:24:12.445Z,5.00
2023-03-04T12:26:40.322Z,5.06
2023-03-04T12:29:15.846Z,5.11
2023-03-04T12:31:45.564Z,5.30
2023-03-04T12:34:22.843Z,5.93
2023-03-04T12:36:49.006Z,6.12
2023-03-04T12:39:33.341Z,5.62
2023-03-04T12:42:13.643Z,5.37
2023-03-04T12:44:45.573Z,5.54
2023-03-04T12:47:17.806Z,5.76
2023-03-04T12:49:59.309Z,5.87
2023-03-04T12:52:25.454Z,6.37
2023-03-04T12:54:52.205Z,6.71
2023-03-04T12:57:23.274Z,6.42
2023-03-04T13:00:08.292Z,6.38
2023-03-04T13:02:40.401Z,6.08
2023-03-04T13:05:19.457Z,6.23
2023-03-04T13:08:04.491Z,6.25
2023-03-04T13:10:30.713Z,6.58
2023-03-04T13:12:58.143Z,6.46
2023-03-04T13:15:24.388Z,6.55
2023-03-04T13:17:54.683Z,6.62
2023-03-04T13:20:25.135Z,6.19
2023-03-04T13:22:58.119Z,6.07
2023-03-04T13:25:29.302Z,5.99
2023-03-04T13:28:10.801Z,6.16
2023-03-04T13:30:36.968Z,5.97
2023-03-04T13:33:08.914Z,5.96
2023-03-04T13:35:47.186Z,6.08
2023-03-04T13:38:22.406Z,6.00
2023-03-04T13:41:11.073Z,6.20
2023-03-04T13:43:43.711Z,5.87
2023-03-04T13:46:19.243Z,5.62
2023-03-04T13:48:51.510Z,5.49
2023-03-04T13:51:30.565Z,5.25
2023-03-04T13:53:59.635Z,5.17
2023-03-04T13:56:29.723Z,5.43
2023-03-04T13:59:08.171Z,5.80
2023-03-04T14:01:37.221Z,5.91
2023-03-04T14:04:23.166Z,5.82
2023-03-04T14:06:49.784Z,5.91
2023-03-04T14:09:16.909Z,6.01
2023-03-04T14:11:43.129Z,6.11
2023-03-04T14:14:16.024Z,6.42
2023-03-04T14:16:46.944Z,6.22
2023-03-04T14:19:32.231Z,6.55
2023-03-04T14:21:58.951Z,6.39
2023-03-04T14:24:25.143Z,6.31
2023-03-04T14:27:03.176Z,6.18
2023-03-04T14:29:29.436Z,6.24
2023-03-04T14:31:55.740Z,6.23
2023-03-04T14:34:26.596Z,6.33
2023-03-04T14:36:52.791Z,6.16
2023-03-04T14:39:19.000Z,6.30
2023-03-04T14:41:45.295Z,6.38
2023-03-04T14:44:13.590Z,6.29
2023-03-04T14:46:40.738Z,6.34
2023-03-04T14:49:07.104Z,6.25
2023-03-04T14:51:37.654Z,6.37
2023-03-04T14:54:03.936Z,6.40
2023-03-04T14:56:30.911Z,6.29
2023-03-04T14:58:57.726Z,6.02
2023-03-04T15:01:33.647Z,5.77
2023-03-04T15:04:09.611Z,5.55
2023-03-04T15:06:37.117Z,5.68
2023-03-04T15:09:06.407Z,5.53
2023-03-04T15:11:33.355Z,5.41
2023-03-04T15:13:59.841Z,5.31
2023-03-04T15:16:27.228Z,5.35
2023-03-04T15:18:57.730Z,5.33
2023-03-04T15:21:23.874Z,5.19
2023-03-04T15:23:50.082Z,5.21
2023-03-04T15:26:16.292Z,5.09
2023-03-04T15:28:42.529Z,4.93
2023-03-04T15:31:19.836Z,4.71
2023-03-04T15:33:46.076Z,4.52
2023-03-04T15:36:12.862Z,4.41
2023-03-04T15:38:39.965Z,4.33
2023-03-04T15:41:06.158Z,4.28
2023-03-04T15:43:32.361Z,4.18
2023-03-04T15:45:58.579Z,4.16
2023-03-04T15:48:26.603Z,4.09
2023-03-04T15:50:56.336Z,4.21
2023-03-04T15:53:25.816Z,4.34
2023-03-04T15:55:52.032Z,4.33
2023-03-04T15:58:18.237Z,4.31
2023-03-04T16:00:44.448Z,4.32
2023-03-04T16:03:12.944Z,4.33
2023-03-04T16:05:39.574Z,4.28
2023-03-04T16:08:05.881Z,4.23
2023-03-04T16:10:33.237Z,4.15
2023-03-04T16:12:59.483Z,4.12
2023-03-04T16:15:26.541Z,4.09
2023-03-04T16:17:52.783Z,3.96
2023-03-04T16:20:23.111Z,3.94
2023-03-04T16:22:50.560Z,3.80
2023-03-04T16:25:16.915Z,3.78
2023-03-04T16:27:43.104Z,3.79
2023-03-04T16:30:13.054Z,3.65
2023-03-04T16:32:39.309Z,3.61
2023-03-04T16:35:05.797Z,3.59
2023-03-04T16:37:32.006Z,3.72
2023-03-04T16:39:58.804Z,3.70
2023-03-04T16:42:25.005Z,3.63
2023-03-04T16:44:51.253Z,3.65
2023-03-04T16:47:17.469Z,3.66
2023-03-04T16:49:43.675Z,3.65
2023-03-04T16:52:14.791Z,3.65
2023-03-04T16:54:40.997Z,3.58
2023-03-04T16:57:07.223Z,3.55
2023-03-04T16:59:33.437Z,3.44
2023-03-04T17:01:59.697Z,3.39
2023-03-04T17:04:25.940Z,3.28
2023-03-04T17:06:52.152Z,3.26
2023-03-04T17:09:18.364Z,3.23
2023-03-04T17:11:44.599Z,3.06
2023-03-04T17:14:10.822Z,2.88
2023-03-04T17:16:37.041Z,2.79
2023-03-04T17:19:03.260Z,2.86
2023-03-04T17:21:29.499Z,2.96
2023-03-04T17:23:55.724Z,3.00
2023-03-04T17:26:21.938Z,2.94
2023-03-04T17:28:51.123Z,3.05
2023-03-04T17:31:17.972Z,2.90
2023-03-04T17:33:44.271Z,3.08
2023-03-04T17:36:11.961Z,3.24
2023-03-04T17:38:38.511Z,3.31
2023-03-04T17:41:08.897Z,3.37
2023-03-04T17:43:35.114Z,3.33
2023-03-04T17:46:05.020Z,3.33
2023-03-04T17:48:31.218Z,3.37
2023-03-04T17:50:57.428Z,3.34
2023-03-04T17:53:23.636Z,2.95
2023-03-04T17:55:56.813Z,3.00
2023-03-04T17:58:23.213Z,3.02
2023-03-04T18:00:49.714Z,3.16
2023-03-04T18:03:15.938Z,3.22
2023-03-04T18:05:42.266Z,3.25
2023-03-04T18:08:08.502Z,3.27
2023-03-04T18:10:34.798Z,3.27
2023-03-04T18:13:01.001Z,3.27
2023-03-04T18:15:27.216Z,3.28
2023-03-04T18:17:53.431Z,3.29
2023-03-04T18:20:19.689Z,3.24
2023-03-04T18:22:45.909Z,3.23
2023-03-04T18:25:12.110Z,3.22
2023-03-04T18:27:41.297Z,3.24
2023-03-04T18:30:08.052Z,3.24
2023-03-04T18:32:50.744Z,3.23
2023-03-04T18:35:17.928Z,3.25
2023-03-04T18:37:44.215Z,3.25
2023-03-04T18:40:10.677Z,3.21
2023-03-04T18:42:36.892Z,3.14
2023-03-04T18:45:03.891Z,2.98
2023-03-04T18:47:30.106Z,2.81
2023-03-04T18:49:56.320Z,2.92
2023-03-04T18:52:22.527Z,3.03
2023-03-04T18:54:48.733Z,3.05
2023-03-04T18:57:14.951Z,3.04
2023-03-04T18:59:42.652Z,3.04
2023-03-04T19:02:19.316Z,3.04
2023-03-04T19:04:45.899Z,2.98
2023-03-04T19:07:12.119Z,3.06
2023-03-04T19:09:38.332Z,3.06
2023-03-04T19:12:04.573Z,3.02
2023-03-04T19:14:30.773Z,2.98
2023-03-04T19:16:57.064Z,3.00
2023-03-04T19:19:23.286Z,2.93
2023-03-04T19:21:49.495Z,2.95
2023-03-04T19:24:15.698Z,2.93
2023-03-04T19:26:41.916Z,2.66
2023-03-04T19:29:08.122Z,2.70
2023-03-04T19:31:34.880Z,2.88
2023-03-04T19:34:01.089Z,2.93
2023-03-04T19:36:27.309Z,2.87
2023-03-04T19:38:53.561Z,2.79
2023-03-04T19:41:19.770Z,2.61
2023-03-04T19:43:46.013Z,2.50
2023-03-04T19:46:12.371Z,2.50
2023-03-04T19:48:38.838Z,2.56
2023-03-04T19:51:05.276Z,2.52
2023-03-04T19:53:34.504Z,2.51
2023-03-04T19:56:00.978Z,2.53
2023-03-04T19:58:27.182Z,2.43
2023-03-04T20:00:53.436Z,2.42
2023-03-04T20:03:19.680Z,2.46
2023-03-04T20:05:45.922Z,2.50
2023-03-04T20:08:12.188Z,2.53
2023-03-04T20:10:38.399Z,2.47
2023-03-04T20:13:05.152Z,2.60
2023-03-04T20:15:31.366Z,2.64
2023-03-04T20:17:57.586Z,2.66
2023-03-04T20:20:23.787Z,2.68
2023-03-04T20:22:49.998Z,2.49
2023-03-04T20:25:16.209Z,2.20
2023-03-04T20:27:42.431Z,2.28
2023-03-04T20:30:09.018Z,2.43
2023-03-04T20:32:35.278Z,2.25
2023-03-04T20:35:01.522Z,2.19
2023-03-04T20:37:27.722Z,2.19
2023-03-04T20:39:53.919Z,2.18
2023-03-04T20:42:20.139Z,2.19
2023-03-04T20:44:46.350Z,2.21
2023-03-04T20:47:12.546Z,2.21
2023-03-04T20:49:38.785Z,2.16
2023-03-04T20:52:05.005Z,2.18
2023-03-04T20:54:31.229Z,2.20
2023-03-04T20:56:57.442Z,2.26
2023-03-04T20:59:23.680Z,2.24
2023-03-04T21:01:49.995Z,2.22
2023-03-04T21:04:16.416Z,2.23
2023-03-04T21:06:42.633Z,2.22
2023-03-04T21:09:09.703Z,2.24
2023-03-04T21:11:36.160Z,2.25
2023-03-04T21:14:02.360Z,2.26
2023-03-04T21:16:28.595Z,2.28
2023-03-04T21:18:54.899Z,2.34
2023-03-04T21:21:22.443Z,2.40
2023-03-04T21:23:52.102Z,2.38
2023-03-04T21:26:18.480Z,2.37
2023-03-04T21:28:44.714Z,2.45
2023-03-04T21:31:20.975Z,2.40
2023-03-04T21:33:47.207Z,2.35
2023-03-04T21:36:13.495Z,2.41
2023-03-04T21:38:40.284Z,2.40
2023-03-04T21:41:06.513Z,2.35
2023-03-04T21:43:32.746Z,2.30
2023-03-04T21:45:58.956Z,2.31
2023-03-04T21:48:25.200Z,2.35
2023-03-04T21:50:51.399Z,2.37
2023-03-04T21:53:17.646Z,2.41
2023-03-04T21:55:43.867Z,2.48
2023-03-04T21:58:10.092Z,2.48
2023-03-04T22:00:37.332Z,2.50
2023-03-04T22:03:03.570Z,2.65
2023-03-04T22:05:29.773Z,2.65
2023-03-04T22:07:55.974Z,2.60
2023-03-04T22:10:22.185Z,2.57
2023-03-04T22:12:48.405Z,2.58
2023-03-04T22:15:14.641Z,2.49
2023-03-04T22:17:41.037Z,2.57
2023-03-04T22:20:07.508Z,2.47
2023-03-04T22:22:33.713Z,2.40
2023-03-04T22:24:59.964Z,2.32
2023-03-04T22:27:26.184Z,2.36
2023-03-04T22:29:52.405Z,2.32
2023-03-04T22:32:18.649Z,2.35
2023-03-04T22:34:44.891Z,2.35
2023-03-04T22:37:11.094Z,2.35
2023-03-04T22:39:37.300Z,2.32
2023-03-04T22:42:03.603Z,2.27
2023-03-04T22:44:29.806Z,2.27
2023-03-04T22:46:56.001Z,2.24
2023-03-04T22:49:22.210Z,2.25
2023-03-04T22:51:48.434Z,2.25
2023-03-04T22:54:15.078Z,2.23
2023-03-04T22:56:41.288Z,2.15
2023-03-04T22:59:07.497Z,2.05
2023-03-04T23:01:33.734Z,2.05
2023-03-04T23:03:59.980Z,2.07
2023-03-04T23:06:26.182Z,2.05
2023-03-04T23:08:52.405Z,2.07
2023-03-04T23:11:19.477Z,2.05
2023-03-04T23:13:45.773Z,1.95
2023-03-04T23:16:12.091Z,1.92
2023-03-04T23:18:38.580Z,1.93
2023-03-04T23:21:08.239Z,1.84
2023-03-04T23:23:34.532Z,1.89
2023-03-04T23:26:00.827Z,1.92
2023-03-04T23:28:27.043Z,1.72
2023-03-04T23:30:53.414Z,1.85
2023-03-04T23:33:19.624Z,1.83
2023-03-04T23:35:45.872Z,1.82
2023-03-04T23:38:12.089Z,1.96
2023-03-04T23:40:38.310Z,1.95
2023-03-04T23:43:04.516Z,1.94
2023-03-04T23:45:30.744Z,1.87
2023-03-04T23:47:56.945Z,1.79
2023-03-04T23:50:23.153Z,1.88
2023-03-04T23:52:49.369Z,1.85
2023-03-04T23:55:18.781Z,1.84
2023-03-04T23:57:44.993Z,1.88
